Time;durP1;ratioP1;P1;durP2;ratioP2;P2;SDS_P1;SDS_P2;PMS_P1;PMS_P2;Temp;Humidity;BMP_temperature;BMP_pressure;BME280_temperature;BME280_humidity;BME280_pressure;Samples;Min_cycle;Max_cycle;Signal;HPM_P1;HPM_P2
2023/12/10 00:02:18;;;;;;;30.33;3.72;;;7.90;99.90;;;;;;5054798;28;20076;-18
2023/12/10 00:04:45;;;;;;;24.55;4.50;;;8.00;99.90;;;;;;5055239;28;20059;-18
2023/12/10 00:07:11;;;;;;;28.35;4.30;;;8.00;99.90;;;;;;5037309;28;20391;-19
2023/12/10 00:09:36;;;;;;;32.17;5.13;;;8.00;99.90;;;;;;5055405;28;20052;-18
2023/12/10 00:12:03;;;;;;;27.45;4.53;;;8.00;99.90;;;;;;5053387;28;20045;-19
2023/12/10 00:14:29;;;;;;;24.20;5.05;;;8.10;99.90;;;;;;5054524;28;20092;-19
2023/12/10 00:16:55;;;;;;;22.15;4.65;;;8.20;99.90;;;;;;5055309;28;20091;-18
2023/12/10 00:19:21;;;;;;;28.73;5.72;;;8.20;99.90;;;;;;5054456;28;20044;-19
2023/12/10 00:21:47;;;;;;;26.73;5.07;;;8.20;99.90;;;;;;5053288;28;20053;-19
2023/12/10 00:24:13;;;;;;;28.20;4.95;;;8.20;99.90;;;;;;5036729;28;20437;-20
2023/12/10 00:26:39;;;;;;;23.77;3.58;;;8.20;99.90;;;;;;5054614;28;20442;-19
2023/12/10 00:29:05;;;;;;;24.90;3.63;;;8.20;99.90;;;;;;5054307;28;20092;-19
2023/12/10 00:31:31;;;;;;;29.60;4.50;;;8.20;99.90;;;;;;5053061;28;20102;-19
2023/12/10 00:33:57;;;;;;;28.40;4.43;;;8.20;99.90;;;;;;5036563;28;20053;-19
2023/12/10 00:36:23;;;;;;;22.30;3.53;;;8.20;99.90;;;;;;5036382;28;20579;-19
2023/12/10 00:38:49;;;;;;;29.33;5.38;;;8.10;99.90;;;;;;5052911;28;20082;-19
2023/12/10 00:41:15;;;;;;;24.95;4.30;;;8.00;99.90;;;;;;5052877;28;20068;-19
2023/12/10 00:43:41;;;;;;;19.92;3.70;;;8.10;99.90;;;;;;5054616;28;20049;-19
2023/12/10 00:46:08;;;;;;;35.92;4.55;;;8.10;99.90;;;;;;5054578;28;20049;-19
2023/12/10 00:48:37;;;;;;;17.55;3.67;;;8.10;99.90;;;;;;5053981;28;20049;-19
2023/12/10 00:51:03;;;;;;;34.88;6.18;;;8.10;99.90;;;;;;5053974;28;20048;-20
2023/12/10 00:53:29;;;;;;;22.52;4.30;;;8.10;99.90;;;;;;5053516;28;20052;-20
2023/12/10 00:55:55;;;;;;;29.77;4.03;;;8.10;99.90;;;;;;5054362;28;20045;-19
2023/12/10 00:58:21;;;;;;;18.67;4.18;;;8.00;99.90;;;;;;5054343;28;20045;-19
2023/12/10 01:00:47;;;;;;;25.67;5.00;;;8.00;99.90;;;;;;5052769;28;20067;-20
2023/12/10 01:03:12;;;;;;;17.42;3.90;;;8.00;99.90;;;;;;5053583;28;20048;-20
2023/12/10 01:05:38;;;;;;;21.27;4.20;;;7.90;99.90;;;;;;5052424;28;20047;-20
2023/12/10 01:08:04;;;;;;;29.48;3.97;;;7.70;99.90;;;;;;5054499;28;20052;-20
2023/12/10 01:10:30;;;;;;;20.60;3.25;;;7.60;99.90;;;;;;5053976;28;20124;-19
2023/12/10 01:12:57;;;;;;;20.92;3.80;;;7.60;99.90;;;;;;5053747;28;20499;-19
2023/12/10 01:15:29;;;;;;;22.52;3.72;;;7.60;99.90;;;;;;5053905;28;20057;-19
2023/12/10 01:18:00;;;;;;;26.42;4.57;;;7.50;99.90;;;;;;5053637;28;20089;-19
2023/12/10 01:20:30;;;;;;;20.70;3.00;;;7.40;99.90;;;;;;5054198;28;20132;-19
2023/12/10 01:22:57;;;;;;;24.63;3.75;;;7.40;99.90;;;;;;5035951;28;20095;-19
2023/12/10 01:25:24;;;;;;;15.35;3.08;;;7.30;99.90;;;;;;5052832;28;20085;-19
2023/12/10 01:27:51;;;;;;;26.02;3.92;;;7.30;99.90;;;;;;5053487;28;20088;-20
2023/12/10 01:30:18;;;;;;;22.10;4.05;;;7.20;99.90;;;;;;5053433;28;20495;-20
2023/12/10 01:32:44;;;;;;;23.90;4.40;;;7.10;99.90;;;;;;5053467;28;20049;-20
2023/12/10 01:35:10;;;;;;;27.92;4.85;;;7.10;99.90;;;;;;5052362;28;20045;-19
2023/12/10 01:37:36;;;;;;;15.73;3.33;;;7.00;99.90;;;;;;5053414;28;20491;-19
2023/12/10 01:40:05;;;;;;;25.55;4.15;;;7.10;99.90;;;;;;5053387;28;20048;-19
2023/12/10 01:42:33;;;;;;;23.75;4.18;;;7.10;99.90;;;;;;5053197;28;20479;-19
2023/12/10 01:45:00;;;;;;;17.48;4.75;;;6.90;99.90;;;;;;5054136;28;20088;-19
2023/12/10 01:47:27;;;;;;;17.95;3.47;;;7.00;99.90;;;;;;5053622;28;20128;-19
2023/12/10 01:49:52;;;;;;;23.33;4.15;;;7.20;99.90;;;;;;5053064;28;20045;-19
2023/12/10 01:52:20;;;;;;;23.80;4.05;;;6.90;99.90;;;;;;5053251;28;20045;-19
2023/12/10 01:54:45;;;;;;;36.70;3.72;;;6.90;99.90;;;;;;5052864;28;20048;-18
2023/12/10 01:57:12;;;;;;;27.05;5.00;;;7.10;99.90;;;;;;5053736;28;20056;-18
2023/12/10 01:59:38;;;;;;;46.72;8.02;;;7.10;99.90;;;;;;5052283;28;20044;-18
2023/12/10 02:02:05;;;;;;;21.75;4.28;;;7.10;99.90;;;;;;5053016;28;20387;-18
2023/12/10 02:04:31;;;;;;;25.98;4.75;;;6.90;99.90;;;;;;5053125;28;20040;-18
2023/12/10 02:06:56;;;;;;;22.35;4.15;;;7.00;99.90;;;;;;5051875;28;20141;-18
2023/12/10 02:09:23;;;;;;;23.42;3.47;;;7.00;99.90;;;;;;5051871;28;20075;-18
2023/12/10 02:11:51;;;;;;;33.85;4.47;;;7.00;99.90;;;;;;5051888;28;20056;-18
2023/12/10 02:14:17;;;;;;;17.83;3.58;;;7.10;99.90;;;;;;5052532;28;20065;-18
2023/12/10 02:16:43;;;;;;;18.83;3.95;;;7.10;99.90;;;;;;5036515;28;20049;-18
2023/12/10 02:19:09;;;;;;;20.95;4.13;;;7.10;99.90;;;;;;5057004;28;20049;-18
2023/12/10 02:21:35;;;;;;;33.15;4.53;;;6.80;99.90;;;;;;5055983;28;20387;-18
2023/12/10 02:24:06;;;;;;;22.52;3.80;;;7.00;99.90;;;;;;5057165;28;20124;-18
2023/12/10 02:26:32;;;;;;;22.00;4.20;;;6.80;99.90;;;;;;5055667;28;20103;-18
2023/12/10 02:28:58;;;;;;;28.20;5.22;;;6.80;99.90;;;;;;5056567;28;20170;-18
2023/12/10 02:31:25;;;;;;;16.45;3.40;;;7.20;99.90;;;;;;5057035;28;20078;-18
2023/12/10 02:33:51;;;;;;;33.03;4.13;;;6.80;99.90;;;;;;5056999;28;20041;-18
2023/12/10 02:36:17;;;;;;;26.52;4.55;;;7.10;99.90;;;;;;5056669;28;20052;-18
2023/12/10 02:38:44;;;;;;;20.33;3.70;;;6.80;99.90;;;;;;5055217;28;20399;-18
2023/12/10 02:41:10;;;;;;;19.60;4.03;;;7.10;99.90;;;;;;5056304;28;20052;-18
2023/12/10 02:43:36;;;;;;;27.50;4.35;;;7.10;99.90;;;;;;5056253;28;20045;-18
2023/12/10 02:46:02;;;;;;;23.48;3.17;;;6.80;99.90;;;;;;5056821;28;20142;-18
2023/12/10 02:48:28;;;;;;;22.52;3.83;;;6.90;99.90;;;;;;5056176;28;20047;-18
2023/12/10 02:50:57;;;;;;;26.48;3.72;;;6.80;99.90;;;;;;5055450;28;20049;-18
2023/12/10 02:53:23;;;;;;;29.30;3.42;;;7.20;99.90;;;;;;5055039;28;20052;-18
2023/12/10 02:55:49;;;;;;;18.33;3.53;;;6.80;99.90;;;;;;5054821;28;20048;-18
2023/12/10 02:58:15;;;;;;;25.88;2.97;;;6.70;99.90;;;;;;5056055;28;20037;-18
2023/12/10 03:00:43;;;;;;;20.85;3.30;;;6.70;99.90;;;;;;5056266;28;20056;-18
2023/12/10 03:03:09;;;;;;;14.82;2.90;;;6.60;99.90;;;;;;5056739;28;20127;-18
2023/12/10 03:05:35;;;;;;;18.95;3.15;;;6.50;99.90;;;;;;5054800;28;20506;-18
2023/12/10 03:08:00;;;;;;;29.50;3.38;;;6.50;99.90;;;;;;5055489;28;20052;-18
2023/12/10 03:10:26;;;;;;;25.92;4.40;;;7.20;99.90;;;;;;5054528;28;20122;-18
2023/12/10 03:12:52;;;;;;;16.40;3.17;;;7.10;99.90;;;;;;5055838;28;20052;-18
2023/12/10 03:15:18;;;;;;;18.70;3.60;;;7.10;99.90;;;;;;5054011;28;20071;-18
2023/12/10 03:17:43;;;;;;;23.48;3.33;;;7.40;99.90;;;;;;5055524;28;20049;-18
2023/12/10 03:20:11;;;;;;;13.05;2.85;;;7.20;99.90;;;;;;5055245;28;20049;-18
2023/12/10 03:22:37;;;;;;;23.38;3.72;;;6.60;99.90;;;;;;5037956;28;20076;-18
2023/12/10 03:25:03;;;;;;;19.17;3.42;;;6.50;99.90;;;;;;5055812;28;20466;-18
2023/12/10 03:27:29;;;;;;;28.60;5.57;;;7.20;99.90;;;;;;5055517;28;20040;-18
2023/12/10 03:29:55;;;;;;;17.83;2.53;;;6.40;99.90;;;;;;5054247;28;20048;-17
2023/12/10 03:32:21;;;;;;;21.38;2.67;;;6.80;99.90;;;;;;5021120;28;20044;-18
2023/12/10 03:34:47;;;;;;;14.57;2.92;;;7.50;99.90;;;;;;5037950;28;20049;-18
2023/12/10 03:37:12;;;;;;;24.42;2.72;;;7.40;99.90;;;;;;5054100;28;20479;-17
2023/12/10 03:39:38;;;;;;;16.85;2.50;;;6.80;99.90;;;;;;5055284;28;20045;-17
2023/12/10 03:42:04;;;;;;;17.65;2.53;;;7.50;99.90;;;;;;5055175;28;20131;-17
2023/12/10 03:44:32;;;;;;;17.08;2.95;;;6.50;99.90;;;;;;5037238;28;20041;-17
2023/12/10 03:47:03;;;;;;;10.40;2.25;;;6.40;99.90;;;;;;5055171;28;20136;-17
2023/12/10 03:49:30;;;;;;;14.82;1.88;;;6.60;99.90;;;;;;5055394;28;20041;-17
2023/12/10 03:51:57;;;;;;;14.80;1.83;;;6.80;99.90;;;;;;5054847;28;20049;-17
2023/12/10 03:54:23;;;;;;;12.00;1.33;;;7.10;99.90;;;;;;5054912;28;20451;-17
2023/12/10 03:56:49;;;;;;;8.65;1.45;;;7.70;99.90;;;;;;5054579;28;20098;-18
2023/12/10 03:59:15;;;;;;;12.80;2.75;;;6.50;99.90;;;;;;5054887;28;20049;-17
2023/12/10 04:01:47;;;;;;;14.10;1.60;;;6.70;99.90;;;;;;5054857;28;20403;-17
2023/12/10 04:04:13;;;;;;;5.70;1.02;;;7.70;99.90;;;;;;5055424;28;20045;-18
2023/12/10 04:06:39;;;;;;;7.70;1.38;;;6.60;99.90;;;;;;5054777;28;20049;-17
2023/12/10 04:09:06;;;;;;;10.68;2.28;;;6.70;99.90;;;;;;5054660;28;20048;-18
2023/12/10 04:11:32;;;;;;;10.93;2.10;;;6.90;99.90;;;;;;5054633;28;20127;-17
2023/12/10 04:13:58;;;;;;;9.82;1.95;;;8.10;99.90;;;;;;5054419;28;20144;-17
2023/12/10 04:16:29;;;;;;;9.00;1.58;;;7.00;99.90;;;;;;5054594;28;20045;-17
2023/12/10 04:18:55;;;;;;;11.27;1.45;;;6.80;99.90;;;;;;5054544;28;20055;-18
2023/12/10 04:21:24;;;;;;;8.45;1.55;;;6.90;99.90;;;;;;5036572;28;20057;-18
2023/12/10 04:23:50;;;;;;;9.90;1.80;;;7.60;99.90;;;;;;5054276;28;20471;-18
2023/12/10 04:26:17;;;;;;;11.40;1.98;;;8.20;99.90;;;;;;5053169;28;20102;-18
2023/12/10 04:28:43;;;;;;;9.65;1.70;;;7.80;99.90;;;;;;5054325;28;20051;-18
2023/12/10 04:31:09;;;;;;;15.13;1.65;;;8.40;99.90;;;;;;5053059;28;20483;-17
2023/12/10 04:33:35;;;;;;;14.23;2.42;;;8.40;99.90;;;;;;5053536;28;20048;-18
2023/12/10 04:36:01;;;;;;;16.92;2.30;;;7.40;99.90;;;;;;5052941;28;20179;-17
2023/12/10 04:38:28;;;;;;;11.50;2.38;;;7.10;99.90;;;;;;5052925;28;20135;-17
2023/12/10 04:40:54;;;;;;;12.85;2.55;;;7.70;99.90;;;;;;5053826;28;20429;-17
2023/12/10 04:43:20;;;;;;;9.00;3.15;;;7.70;99.90;;;;;;5054045;28;20044;-18
2023/12/10 04:45:46;;;;;;;6.65;1.92;;;8.20;99.90;;;;;;5054026;28;20044;-17
2023/12/10 04:48:13;;;;;;;12.50;1.98;;;7.80;99.90;;;;;;5053038;28;20071;-17
2023/12/10 04:50:40;;;;;;;11.82;2.20;;;7.30;99.90;;;;;;5053935;28;20454;-17
2023/12/10 04:53:06;;;;;;;4.63;1.48;;;8.60;99.90;;;;;;5053057;28;20057;-17
2023/12/10 04:55:32;;;;;;;6.57;1.02;;;8.50;99.90;;;;;;5053824;28;20045;-17
2023/12/10 04:57:59;;;;;;;8.85;2.03;;;8.50;99.90;;;;;;5054448;28;20122;-17
2023/12/10 05:00:25;;;;;;;8.10;2.35;;;8.40;99.90;;;;;;5036554;28;20053;-17
2023/12/10 05:02:51;;;;;;;5.68;1.35;;;7.50;99.90;;;;;;5052603;28;20542;-17
2023/12/10 05:05:17;;;;;;;8.90;1.48;;;8.30;99.90;;;;;;5053748;28;20080;-17
2023/12/10 05:07:44;;;;;;;4.40;1.15;;;8.30;99.90;;;;;;5052719;28;20084;-17
2023/12/10 05:10:10;;;;;;;4.72;1.10;;;8.40;99.90;;;;;;5053693;28;20084;-18
2023/12/10 05:12:36;;;;;;;5.15;1.40;;;7.40;99.90;;;;;;5053655;28;20443;-17
2023/12/10 05:15:02;;;;;;;9.27;2.28;;;7.50;99.90;;;;;;5053734;28;20118;-18
2023/12/10 05:17:28;;;;;;;5.38;1.30;;;7.20;99.90;;;;;;5053543;28;20454;-17
2023/12/10 05:19:54;;;;;;;9.25;1.35;;;7.30;99.90;;;;;;5054402;28;20049;-17
2023/12/10 05:22:20;;;;;;;7.30;1.60;;;7.20;99.90;;;;;;5053157;28;20051;-18
2023/12/10 05:24:46;;;;;;;8.10;1.00;;;8.20;99.90;;;;;;5052841;28;20045;-18
2023/12/10 05:27:13;;;;;;;8.82;1.38;;;8.00;99.90;;;;;;5052941;28;20120;-18
2023/12/10 05:29:39;;;;;;;5.10;1.05;;;7.60;99.90;;;;;;5054025;28;20045;-18
2023/12/10 05:32:05;;;;;;;6.63;1.08;;;8.00;99.90;;;;;;5053426;28;20052;-18
2023/12/10 05:34:31;;;;;;;3.38;0.70;;;7.10;99.90;;;;;;5052244;28;20044;-17
2023/12/10 05:36:57;;;;;;;9.88;1.48;;;7.80;99.90;;;;;;5053391;28;20053;-18
2023/12/10 05:39:23;;;;;;;7.50;1.13;;;8.00;99.90;;;;;;5053394;28;20052;-18
2023/12/10 05:41:49;;;;;;;9.70;1.33;;;7.10;99.90;;;;;;5053366;28;20041;-18
2023/12/10 05:44:15;;;;;;;5.05;1.08;;;7.20;99.90;;;;;;5053369;28;20044;-18
2023/12/10 05:46:41;;;;;;;6.50;1.33;;;7.80;99.90;;;;;;5053086;28;20041;-18
2023/12/10 05:49:07;;;;;;;2.72;0.45;;;7.60;99.90;;;;;;5053582;28;20049;-18
2023/12/10 05:51:32;;;;;;;3.60;0.88;;;7.80;99.90;;;;;;5056075;28;20364;-18
2023/12/10 05:53:58;;;;;;;7.10;1.10;;;7.50;99.90;;;;;;5057162;28;20443;-18
2023/12/10 05:56:24;;;;;;;14.13;1.70;;;7.80;99.90;;;;;;5057260;28;20095;-18
2023/12/10 05:58:50;;;;;;;12.18;1.77;;;7.40;99.90;;;;;;5057145;28;20041;-18
2023/12/10 06:01:16;;;;;;;4.47;0.98;;;7.40;99.90;;;;;;5057949;28;20051;-18
2023/12/10 06:03:42;;;;;;;10.05;1.35;;;7.40;99.90;;;;;;5057090;28;20475;-18
2023/12/10 06:06:08;;;;;;;7.88;1.40;;;7.70;99.90;;;;;;5057062;28;20056;-18
2023/12/10 06:08:33;;;;;;;10.85;2.13;;;7.70;99.90;;;;;;5057228;28;20498;-18
2023/12/10 06:10:59;;;;;;;12.52;1.98;;;7.40;99.90;;;;;;5056658;28;20087;-18
2023/12/10 06:13:27;;;;;;;6.75;1.98;;;7.80;99.90;;;;;;5056619;28;20059;-18
2023/12/10 06:15:54;;;;;;;14.60;2.67;;;7.50;99.90;;;;;;5056839;28;20057;-18
2023/12/10 06:18:21;;;;;;;21.13;2.60;;;7.90;99.90;;;;;;5056477;28;20605;-18
2023/12/10 06:20:46;;;;;;;11.32;2.85;;;7.90;99.90;;;;;;5056741;28;20398;-18
2023/12/10 06:23:12;;;;;;;10.95;2.00;;;7.70;99.90;;;;;;5055940;28;20045;-18
2023/12/10 06:25:38;;;;;;;17.13;2.70;;;7.80;99.90;;;;;;5055399;28;20053;-18
2023/12/10 06:28:04;;;;;;;12.95;1.52;;;8.00;99.90;;;;;;5056645;28;20053;-18
2023/12/10 06:30:30;;;;;;;10.88;2.42;;;8.10;99.90;;;;;;5056600;28;20071;-18
2023/12/10 06:32:56;;;;;;;20.20;3.35;;;8.00;99.90;;;;;;5055547;28;20079;-18
2023/12/10 06:35:22;;;;;;;14.10;3.15;;;7.90;99.90;;;;;;5056049;28;20052;-18
2023/12/10 06:37:49;;;;;;;21.83;4.00;;;7.70;99.90;;;;;;5057247;28;20053;-18
2023/12/10 06:40:15;;;;;;;12.43;2.28;;;7.80;99.90;;;;;;5056597;28;20464;-18
2023/12/10 06:42:41;;;;;;;10.32;2.78;;;7.90;99.90;;;;;;5056346;28;20049;-18
2023/12/10 06:45:07;;;;;;;15.93;3.85;;;7.90;99.90;;;;;;5055152;28;20499;-18
2023/12/10 06:47:33;;;;;;;17.95;2.58;;;8.00;99.90;;;;;;5056277;28;20089;-18
2023/12/10 06:49:59;;;;;;;18.00;2.17;;;7.70;99.90;;;;;;5056279;28;20084;-18
2023/12/10 06:52:25;;;;;;;13.25;2.65;;;7.70;99.90;;;;;;5056175;28;20540;-18
2023/12/10 06:54:51;;;;;;;14.75;2.58;;;7.80;99.90;;;;;;5054883;28;20080;-18
2023/12/10 06:57:17;;;;;;;12.35;2.92;;;7.60;99.90;;;;;;5056031;28;20048;-18
2023/12/10 06:59:43;;;;;;;18.33;3.08;;;7.70;99.90;;;;;;5056039;28;20045;-18
2023/12/10 07:02:09;;;;;;;18.58;2.30;;;7.60;99.90;;;;;;5055379;28;20135;-18
2023/12/10 07:04:36;;;;;;;10.43;2.05;;;7.60;99.90;;;;;;5055934;28;20044;-18
2023/12/10 07:07:02;;;;;;;16.88;2.50;;;7.80;99.90;;;;;;5055936;28;20045;-18
2023/12/10 07:09:28;;;;;;;14.40;2.05;;;7.70;99.90;;;;;;5055856;28;20049;-18
2023/12/10 07:11:54;;;;;;;16.40;2.60;;;7.70;99.90;;;;;;5055835;28;20055;-18
2023/12/10 07:14:20;;;;;;;18.17;3.42;;;7.80;99.90;;;;;;5055536;28;20057;-18
2023/12/10 07:16:46;;;;;;;18.38;3.28;;;7.80;99.90;;;;;;5055027;28;20479;-18
2023/12/10 07:19:12;;;;;;;16.27;3.28;;;7.90;99.90;;;;;;5054505;28;20388;-18
2023/12/10 07:21:38;;;;;;;13.38;2.20;;;7.90;99.90;;;;;;5055680;28;20102;-18
2023/12/10 07:24:05;;;;;;;12.25;2.85;;;7.90;99.90;;;;;;5055476;28;20071;-18
2023/12/10 07:26:31;;;;;;;8.65;1.60;;;8.00;99.90;;;;;;5055228;28;20388;-18
2023/12/10 07:28:57;;;;;;;12.32;1.65;;;7.90;99.90;;;;;;5054327;28;20091;-17
2023/12/10 07:31:22;;;;;;;8.95;2.22;;;7.90;99.90;;;;;;5055440;28;20084;-18
2023/12/10 07:33:48;;;;;;;14.27;2.10;;;7.90;99.90;;;;;;5055626;28;20048;-18
2023/12/10 07:36:14;;;;;;;8.60;1.48;;;7.90;99.90;;;;;;5055347;28;20067;-18
2023/12/10 07:38:40;;;;;;;12.85;2.05;;;8.00;99.90;;;;;;5055240;28;20044;-18
2023/12/10 07:41:06;;;;;;;10.80;1.95;;;7.90;99.90;;;;;;5054292;28;20471;-18
2023/12/10 07:43:32;;;;;;;10.80;1.38;;;8.00;99.90;;;;;;5055503;28;20101;-17
2023/12/10 07:45:58;;;;;;;11.75;2.47;;;7.80;99.90;;;;;;5055147;28;20041;-18
2023/12/10 07:48:24;;;;;;;10.30;1.98;;;8.00;99.90;;;;;;5055961;28;20071;-18
2023/12/10 07:50:50;;;;;;;14.45;2.63;;;7.60;99.90;;;;;;5055044;28;20372;-18
2023/12/10 07:53:16;;;;;;;12.85;1.80;;;7.50;99.90;;;;;;5055030;28;20045;-17
2023/12/10 07:55:43;;;;;;;13.95;2.28;;;8.30;99.90;;;;;;5053991;28;20106;-18
2023/12/10 07:58:09;;;;;;;12.98;2.20;;;8.20;99.90;;;;;;5055719;28;20049;-18
2023/12/10 08:00:35;;;;;;;23.35;3.63;;;7.70;99.90;;;;;;5053387;28;20040;-18
2023/12/10 08:03:01;;;;;;;10.80;2.53;;;7.90;99.90;;;;;;5053625;28;20047;-18
2023/12/10 08:05:27;;;;;;;7.75;1.88;;;7.80;99.90;;;;;;5054991;28;20091;-18
2023/12/10 08:07:53;;;;;;;14.70;2.50;;;8.10;99.90;;;;;;5054253;28;20445;-18
2023/12/10 08:10:19;;;;;;;9.68;1.83;;;7.80;99.90;;;;;;5054013;28;20084;-18
2023/12/10 08:12:45;;;;;;;5.90;1.50;;;8.10;99.90;;;;;;5054853;28;20049;-18
2023/12/10 08:15:11;;;;;;;15.95;2.63;;;8.10;99.90;;;;;;5051950;28;20068;-18
2023/12/10 08:17:37;;;;;;;12.32;2.53;;;8.20;99.90;;;;;;5053398;28;20056;-18
2023/12/10 08:20:04;;;;;;;9.65;1.85;;;8.20;99.90;;;;;;5054148;28;20045;-18
2023/12/10 08:22:31;;;;;;;7.10;1.40;;;7.70;99.90;;;;;;5054305;28;20095;-18
2023/12/10 08:24:57;;;;;;;9.68;2.22;;;7.80;99.90;;;;;;5054640;28;20053;-18
2023/12/10 08:27:22;;;;;;;13.27;3.03;;;8.00;99.90;;;;;;5054853;28;20102;-18
2023/12/10 08:29:48;;;;;;;15.82;2.95;;;8.10;99.90;;;;;;5054304;28;20127;-18
2023/12/10 08:32:14;;;;;;;12.55;3.88;;;7.90;99.90;;;;;;5053308;28;20547;-18
2023/12/10 08:34:40;;;;;;;10.07;2.20;;;7.60;99.90;;;;;;5052914;28;20041;-18
2023/12/10 08:37:06;;;;;;;7.03;1.70;;;7.60;99.90;;;;;;5053845;28;20044;-18
2023/12/10 08:39:32;;;;;;;11.80;1.52;;;8.10;99.90;;;;;;5052931;28;20417;-18
2023/12/10 08:41:58;;;;;;;11.60;2.25;;;7.70;99.90;;;;;;5054908;28;20123;-18
2023/12/10 08:44:25;;;;;;;10.15;2.53;;;7.60;99.90;;;;;;5054075;28;20048;-18
2023/12/10 08:46:53;;;;;;;11.55;1.55;;;7.60;99.90;;;;;;5053841;28;20490;-18
2023/12/10 08:49:19;;;;;;;21.25;3.47;;;8.10;99.90;;;;;;5054438;28;20089;-18
2023/12/10 08:51:45;;;;;;;9.43;2.42;;;8.10;99.90;;;;;;5053909;28;20087;-18
2023/12/10 08:54:10;;;;;;;14.15;3.70;;;8.20;99.90;;;;;;5052686;28;20098;-18
2023/12/10 08:56:37;;;;;;;18.20;3.05;;;7.50;99.90;;;;;;5053817;28;20041;-18
2023/12/10 08:59:03;;;;;;;14.93;3.65;;;7.70;99.90;;;;;;5054019;28;20122;-18
2023/12/10 09:01:29;;;;;;;17.45;2.97;;;7.60;99.90;;;;;;5054326;28;20056;-18
2023/12/10 09:03:55;;;;;;;13.52;2.60;;;8.00;99.90;;;;;;5052506;28;20038;-18
2023/12/10 09:06:21;;;;;;;17.02;2.85;;;7.70;99.90;;;;;;5053608;28;20136;-18
2023/12/10 09:08:47;;;;;;;14.50;3.13;;;7.80;99.90;;;;;;5052504;28;20127;-18
2023/12/10 09:11:13;;;;;;;16.63;3.28;;;7.70;99.90;;;;;;5052426;28;20045;-18
2023/12/10 09:13:39;;;;;;;26.00;3.15;;;8.00;99.90;;;;;;5053369;28;20053;-18
2023/12/10 09:16:06;;;;;;;20.98;2.42;;;7.60;99.90;;;;;;5052427;28;20137;-18
2023/12/10 09:18:32;;;;;;;9.35;2.10;;;8.00;99.90;;;;;;5052523;28;20084;-18
2023/12/10 09:20:58;;;;;;;10.88;1.90;;;7.80;99.90;;;;;;5053486;28;20044;-18
2023/12/10 09:23:25;;;;;;;22.42;2.53;;;8.00;99.90;;;;;;5035869;28;20078;-18
2023/12/10 09:25:52;;;;;;;15.15;3.65;;;7.50;99.90;;;;;;5053476;28;20568;-18
2023/12/10 09:28:18;;;;;;;16.88;3.00;;;8.00;99.90;;;;;;5053699;28;20045;-18
2023/12/10 09:30:44;;;;;;;14.60;2.40;;;7.90;99.90;;;;;;5053439;28;20044;-18
2023/12/10 09:33:10;;;;;;;16.23;2.60;;;8.10;99.90;;;;;;5052175;28;20048;-18
2023/12/10 09:35:36;;;;;;;14.13;2.03;;;7.50;99.90;;;;;;5052086;28;20045;-18
2023/12/10 09:38:05;;;;;;;17.05;2.90;;;7.90;99.90;;;;;;5053381;28;20045;-18
2023/12/10 09:40:34;;;;;;;11.77;2.05;;;7.90;99.90;;;;;;5053867;28;20045;-18
2023/12/10 09:43:01;;;;;;;16.75;2.88;;;7.60;99.90;;;;;;5053316;28;20453;-18
2023/12/10 09:45:28;;;;;;;14.43;2.40;;;7.60;99.90;;;;;;5053243;28;20521;-18
2023/12/10 09:47:59;;;;;;;16.10;2.20;;;7.50;99.90;;;;;;5056646;28;20095;-18
2023/12/10 09:50:25;;;;;;;18.17;2.67;;;7.50;99.90;;;;;;5059545;28;20041;-18
2023/12/10 09:52:55;;;;;;;11.07;2.00;;;7.70;99.90;;;;;;5052713;28;20056;-18
2023/12/10 09:55:21;;;;;;;7.75;1.42;;;7.50;99.90;;;;;;5053147;28;20037;-18
2023/12/10 09:57:48;;;;;;;10.32;1.60;;;7.80;99.90;;;;;;5053120;28;20060;-18
2023/12/10 10:00:16;;;;;;;21.42;3.50;;;7.90;99.90;;;;;;5053134;28;20110;-18
2023/12/10 10:02:42;;;;;;;16.40;3.15;;;7.90;99.90;;;;;;5052024;28;20053;-18
2023/12/10 10:05:08;;;;;;;13.95;1.75;;;7.60;99.90;;;;;;5053348;28;20094;-18
2023/12/10 10:07:33;;;;;;;19.02;2.30;;;7.70;99.90;;;;;;5052088;28;20502;-18
2023/12/10 10:09:59;;;;;;;16.13;2.97;;;7.60;99.90;;;;;;5053586;28;20041;-18
2023/12/10 10:12:33;;;;;;;16.73;1.67;;;7.80;99.90;;;;;;5053025;28;20051;-18
2023/12/10 10:14:59;;;;;;;11.80;1.90;;;7.40;99.90;;;;;;5051674;28;20065;-18
2023/12/10 10:17:29;;;;;;;11.40;2.20;;;7.60;99.90;;;;;;5052659;28;20396;-18
2023/12/10 10:19:55;;;;;;;10.52;2.00;;;7.60;99.90;;;;;;5052549;28;20045;-18
2023/12/10 10:22:23;;;;;;;12.23;1.65;;;7.40;99.90;;;;;;5051951;28;20162;-18
2023/12/10 10:24:51;;;;;;;14.90;2.08;;;8.00;99.90;;;;;;5051703;28;20040;-18
2023/12/10 10:27:17;;;;;;;8.05;1.52;;;7.90;99.90;;;;;;5051963;28;20051;-18
2023/12/10 10:29:44;;;;;;;10.85;2.75;;;7.50;99.90;;;;;;5035368;28;20102;-18
2023/12/10 10:32:15;;;;;;;18.73;3.25;;;7.50;99.90;;;;;;5052832;28;20048;-18
2023/12/10 10:34:44;;;;;;;14.02;2.20;;;8.10;99.90;;;;;;5051635;28;20124;-18
2023/12/10 10:37:10;;;;;;;10.57;2.78;;;8.20;99.90;;;;;;5051764;28;20340;-18
2023/12/10 10:39:36;;;;;;;28.70;3.22;;;7.80;99.90;;;;;;5056361;28;20048;-18
2023/12/10 10:42:06;;;;;;;28.25;4.00;;;7.70;99.90;;;;;;5055929;28;20056;-18
2023/12/10 10:44:32;;;;;;;20.23;3.42;;;8.10;99.90;;;;;;5039039;28;20045;-18
2023/12/10 10:47:00;;;;;;;26.25;4.22;;;7.40;99.90;;;;;;5056252;28;20111;-18
2023/12/10 10:49:26;;;;;;;19.05;3.72;;;7.50;99.90;;;;;;5056223;28;20045;-18
2023/12/10 10:51:53;;;;;;;19.27;4.20;;;8.10;99.90;;;;;;5056235;28;20044;-18
2023/12/10 10:54:20;;;;;;;14.32;3.55;;;7.40;99.90;;;;;;5056004;28;20075;-18
2023/12/10 10:56:46;;;;;;;28.42;4.40;;;7.50;99.90;;;;;;5054877;28;20384;-18
2023/12/10 10:59:36;;;;;;;23.05;3.55;;;8.00;99.90;;;;;;5056425;28;20174;-18
2023/12/10 11:02:05;;;;;;;15.55;3.13;;;7.90;99.90;;;;;;5055930;28;20509;-18
2023/12/10 11:04:37;;;;;;;25.83;5.05;;;7.50;99.90;;;;;;5055977;28;20124;-18
2023/12/10 11:07:04;;;;;;;24.60;4.28;;;7.60;99.90;;;;;;5055160;28;20056;-18
2023/12/10 11:09:33;;;;;;;33.65;4.53;;;8.00;99.90;;;;;;5054532;28;20407;-18
2023/12/10 11:11:59;;;;;;;27.67;4.70;;;8.00;99.90;;;;;;5055792;28;20056;-18
2023/12/10 11:14:28;;;;;;;17.42;3.80;;;8.10;99.90;;;;;;5055825;28;20079;-18
2023/12/10 11:16:59;;;;;;;29.85;5.43;;;8.10;99.90;;;;;;5038328;28;20128;-18
2023/12/10 11:19:25;;;;;;;27.50;4.35;;;7.70;99.90;;;;;;5055746;28;20041;-18
2023/12/10 11:21:51;;;;;;;16.15;3.72;;;8.00;99.90;;;;;;5054408;28;20072;-18
2023/12/10 11:24:17;;;;;;;27.92;4.35;;;7.80;99.90;;;;;;5054342;28;20048;-18
2023/12/10 11:26:43;;;;;;;29.88;6.03;;;8.00;99.90;;;;;;5037627;28;20048;-18
2023/12/10 11:29:09;;;;;;;20.58;3.35;;;7.80;99.90;;;;;;5055405;28;20049;-18
2023/12/10 11:31:35;;;;;;;23.02;3.88;;;7.80;99.90;;;;;;5055657;28;20051;-18
2023/12/10 11:34:01;;;;;;;25.90;4.65;;;7.90;99.90;;;;;;5055780;28;20040;-18
2023/12/10 11:36:27;;;;;;;36.20;5.90;;;7.80;99.90;;;;;;5054297;28;20048;-18
2023/12/10 11:38:53;;;;;;;15.00;3.33;;;7.90;99.90;;;;;;5054938;28;20123;-18
2023/12/10 11:41:19;;;;;;;21.15;3.95;;;7.90;99.90;;;;;;5055117;28;20044;-18
2023/12/10 11:43:45;;;;;;;23.85;5.68;;;8.00;99.90;;;;;;5054205;28;20084;-18
2023/12/10 11:46:19;;;;;;;27.85;4.45;;;8.00;99.90;;;;;;5053954;28;20049;-18
2023/12/10 11:48:45;;;;;;;37.88;6.03;;;7.80;99.90;;;;;;5037977;28;20391;-18
2023/12/10 11:51:11;;;;;;;24.60;4.63;;;8.00;99.90;;;;;;5055015;28;20041;-18
2023/12/10 11:53:37;;;;;;;19.90;4.10;;;7.80;99.90;;;;;;5053725;28;20048;-18
2023/12/10 11:56:04;;;;;;;26.65;3.58;;;7.70;99.90;;;;;;5055747;28;20045;-18
2023/12/10 11:58:32;;;;;;;23.08;4.68;;;7.70;99.90;;;;;;5054862;28;20124;-18
2023/12/10 12:01:02;;;;;;;20.33;3.67;;;8.00;99.90;;;;;;5054587;28;20064;-18
2023/12/10 12:03:31;;;;;;;25.85;4.57;;;7.80;99.90;;;;;;5055504;28;20049;-18
2023/12/10 12:05:57;;;;;;;17.60;3.50;;;7.80;99.90;;;;;;5053748;28;20064;-18
2023/12/10 12:08:27;;;;;;;32.70;4.55;;;7.70;99.90;;;;;;5053695;28;20399;-18
2023/12/10 12:10:55;;;;;;;38.45;5.80;;;7.80;99.90;;;;;;5053427;28;20057;-18
2023/12/10 12:13:21;;;;;;;29.42;5.18;;;7.90;99.90;;;;;;5054542;28;20079;-18
2023/12/10 12:15:48;;;;;;;27.00;4.35;;;7.90;99.90;;;;;;5054739;28;20053;-18
2023/12/10 12:18:14;;;;;;;27.08;4.63;;;7.70;99.90;;;;;;5055289;28;20048;-18
2023/12/10 12:20:40;;;;;;;25.92;6.43;;;7.80;99.90;;;;;;5054456;28;20048;-18
2023/12/10 12:23:06;;;;;;;20.83;3.97;;;7.90;99.90;;;;;;5053065;28;20041;-18
2023/12/10 12:25:34;;;;;;;18.02;3.63;;;7.90;99.90;;;;;;5054552;28;20041;-18
2023/12/10 12:28:01;;;;;;;23.92;4.00;;;7.90;99.90;;;;;;5054311;28;20107;-18
2023/12/10 12:30:27;;;;;;;24.45;3.67;;;7.80;99.90;;;;;;5036673;28;20091;-18
2023/12/10 12:32:53;;;;;;;23.08;4.57;;;8.00;99.90;;;;;;5055061;28;20076;-17
2023/12/10 12:35:19;;;;;;;25.02;5.15;;;7.90;99.90;;;;;;5052996;28;20475;-18
2023/12/10 12:37:45;;;;;;;33.33;5.50;;;7.90;99.90;;;;;;5054159;28;20052;-18
2023/12/10 12:40:11;;;;;;;33.13;4.95;;;8.10;99.90;;;;;;5036352;28;20120;-18
2023/12/10 12:42:37;;;;;;;26.42;4.65;;;8.00;99.90;;;;;;5053111;28;20080;-18
2023/12/10 12:45:03;;;;;;;20.73;4.43;;;8.20;99.90;;;;;;5053134;28;20443;-18